createdAt,value
2023-12-17T00:02:09.475Z,102124.45
2023-12-17T00:04:01.380Z,102126.15
2023-12-17T00:05:52.761Z,102127.88
2023-12-17T00:07:44.365Z,102132.37
2023-12-17T00:09:35.633Z,102129.54
2023-12-17T00:11:26.871Z,102124.60
2023-12-17T00:13:18.894Z,102122.15
2023-12-17T00:15:11.286Z,102115.42
2023-12-17T00:17:03.133Z,102112.71
2023-12-17T00:18:54.741Z,102104.03
2023-12-17T00:20:46.208Z,102092.25
2023-12-17T00:22:39.621Z,102096.77
2023-12-17T00:24:31.549Z,102092.71
2023-12-17T00:26:22.798Z,102095.05
2023-12-17T00:28:13.965Z,102091.07
2023-12-17T00:30:06.355Z,102089.73
2023-12-17T00:32:00.965Z,102094.75
2023-12-17T00:33:53.163Z,102099.62
2023-12-17T00:35:45.114Z,102100.86
2023-12-17T00:37:36.742Z,102102.34
2023-12-17T00:39:28.419Z,102112.21
2023-12-17T00:41:19.896Z,102118.73
2023-12-17T00:43:11.616Z,102117.25
2023-12-17T00:45:03.255Z,102110.09
2023-12-17T00:46:54.712Z,102107.83
2023-12-17T00:48:46.459Z,102106.66
2023-12-17T00:50:37.930Z,102102.84
2023-12-17T00:52:29.508Z,102103.65
2023-12-17T00:54:21.041Z,102107.77
2023-12-17T00:56:13.542Z,102106.43
2023-12-17T00:58:04.816Z,102104.16
2023-12-17T00:59:56.540Z,102104.36
2023-12-17T01:01:48.386Z,102103.95
2023-12-17T01:03:39.978Z,102096.13
2023-12-17T01:05:34.499Z,102090.41
2023-12-17T01:07:26.191Z,102083.39
2023-12-17T01:09:18.336Z,102078.87
2023-12-17T01:11:09.739Z,102070.50
2023-12-17T01:13:01.407Z,102071.60
2023-12-17T01:14:52.748Z,102074.05
2023-12-17T01:16:44.487Z,102083.34
2023-12-17T01:18:37.111Z,102085.16
2023-12-17T01:20:28.845Z,102084.91
2023-12-17T01:22:20.532Z,102085.30
2023-12-17T01:24:12.185Z,102081.08
2023-12-17T01:26:03.522Z,102084.08
2023-12-17T01:27:55.215Z,102078.92
2023-12-17T01:29:46.799Z,102079.23
2023-12-17T01:31:38.598Z,102071.77
2023-12-17T01:33:30.395Z,102072.85
2023-12-17T01:35:21.876Z,102071.35
2023-12-17T01:37:13.547Z,102068.77
2023-12-17T01:39:05.464Z,102070.89
2023-12-17T01:40:57.057Z,102067.80
2023-12-17T01:42:48.875Z,102071.25
2023-12-17T01:44:42.025Z,102068.40
2023-12-17T01:46:33.714Z,102067.91
2023-12-17T01:48:27.056Z,102074.70
2023-12-17T01:50:18.787Z,102075.33
2023-12-17T01:52:10.753Z,102080.74
2023-12-17T01:54:02.119Z,102080.55
2023-12-17T01:55:53.917Z,102079.44
2023-12-17T01:57:45.101Z,102075.88
2023-12-17T01:59:37.137Z,102071.86
2023-12-17T02:01:29.335Z,102066.59
2023-12-17T02:03:20.945Z,102058.36
2023-12-17T02:05:12.720Z,102054.65
2023-12-17T02:07:04.432Z,102054.92
2023-12-17T02:08:56.305Z,102061.46
2023-12-17T02:10:47.681Z,102068.97
2023-12-17T02:12:39.266Z,102071.05
2023-12-17T02:14:30.773Z,102074.63
2023-12-17T02:16:22.617Z,102074.79
2023-12-17T02:18:14.723Z,102085.92
2023-12-17T02:20:06.884Z,102088.38
2023-12-17T02:21:58.360Z,102088.90
2023-12-17T02:23:50.067Z,102084.25
2023-12-17T02:25:41.952Z,102089.28
2023-12-17T02:27:33.228Z,102087.95
2023-12-17T02:29:24.746Z,102093.55
2023-12-17T02:31:16.105Z,102103.41
2023-12-17T02:33:07.813Z,102112.66
2023-12-17T02:34:59.287Z,102109.63
2023-12-17T02:36:50.428Z,102097.65
2023-12-17T02:38:42.185Z,102098.38
2023-12-17T02:40:33.708Z,102096.16
2023-12-17T02:42:25.051Z,102096.23
2023-12-17T02:44:16.758Z,102098.13
2023-12-17T02:46:08.273Z,102095.95
2023-12-17T02:48:00.057Z,102106.08
2023-12-17T02:49:51.706Z,102102.45
2023-12-17T02:51:43.510Z,102092.02
2023-12-17T02:53:34.849Z,102088.55
2023-12-17T02:55:26.099Z,102087.45
2023-12-17T02:57:17.844Z,102079.77
2023-12-17T02:59:10.241Z,102077.59
2023-12-17T03:01:01.720Z,102073.58
2023-12-17T03:02:53.245Z,102068.39
2023-12-17T03:04:44.832Z,102080.23
2023-12-17T03:06:37.373Z,102081.01
2023-12-17T03:08:29.058Z,102082.39
2023-12-17T03:10:20.329Z,102081.27
2023-12-17T03:12:12.082Z,102079.32
2023-12-17T03:14:03.932Z,102076.33
2023-12-17T03:15:55.011Z,102075.62
2023-12-17T03:17:46.300Z,102071.51
2023-12-17T03:19:37.863Z,102068.91
2023-12-17T03:21:29.628Z,102066.02
2023-12-17T03:23:21.431Z,102064.07
2023-12-17T03:25:12.584Z,102061.77
2023-12-17T03:27:04.001Z,102063.94
2023-12-17T03:28:55.496Z,102065.61
2023-12-17T03:30:47.058Z,102068.54
2023-12-17T03:32:38.770Z,102067.17
2023-12-17T03:34:30.649Z,102062.75
2023-12-17T03:36:22.561Z,102063.16
2023-12-17T03:38:14.807Z,102063.56
2023-12-17T03:40:06.897Z,102063.23
2023-12-17T03:41:58.399Z,102064.89
2023-12-17T03:43:54.779Z,102064.66
2023-12-17T03:45:46.344Z,102065.48
2023-12-17T03:47:42.011Z,102066.19
2023-12-17T03:49:33.649Z,102069.70
2023-12-17T03:51:25.261Z,102070.14
2023-12-17T03:53:16.979Z,102069.45
2023-12-17T03:55:09.162Z,102068.10
2023-12-17T03:57:00.869Z,102066.98
2023-12-17T03:58:52.290Z,102065.95
2023-12-17T04:00:43.812Z,102067.66
2023-12-17T04:02:36.890Z,102072.31
2023-12-17T04:04:29.316Z,102074.09
2023-12-17T04:06:20.550Z,102076.47
2023-12-17T04:08:12.145Z,102077.59
2023-12-17T04:10:04.613Z,102075.56
2023-12-17T04:11:56.204Z,102081.91
2023-12-17T04:13:47.868Z,102090.79
2023-12-17T04:15:39.193Z,102091.58
2023-12-17T04:17:31.842Z,102092.98
2023-12-17T04:19:23.660Z,102099.58
2023-12-17T04:21:15.275Z,102100.27
2023-12-17T04:23:06.934Z,102105.46
2023-12-17T04:24:58.826Z,102100.20
2023-12-17T04:26:50.080Z,102093.81
2023-12-17T04:28:41.744Z,102094.83
2023-12-17T04:30:33.160Z,102088.61
2023-12-17T04:32:24.717Z,102093.02
2023-12-17T04:34:15.986Z,102086.30
2023-12-17T04:36:08.280Z,102088.02
2023-12-17T04:37:59.991Z,102075.59
2023-12-17T04:39:51.219Z,102064.59
2023-12-17T04:41:43.613Z,102067.86
2023-12-17T04:43:35.382Z,102074.67
2023-12-17T04:45:27.213Z,102077.42
2023-12-17T04:47:18.647Z,102083.66
2023-12-17T04:49:10.258Z,102089.61
2023-12-17T04:51:02.097Z,102086.72
2023-12-17T04:52:53.738Z,102087.83
2023-12-17T04:54:45.354Z,102084.98
2023-12-17T04:56:37.051Z,102090.10
2023-12-17T04:58:29.349Z,102094.68
2023-12-17T05:00:20.721Z,102095.12
2023-12-17T05:02:12.593Z,102093.96
2023-12-17T05:04:04.613Z,102089.36
2023-12-17T05:05:56.303Z,102084.19
2023-12-17T05:07:47.659Z,102086.55
2023-12-17T05:09:39.302Z,102084.29
2023-12-17T05:11:30.952Z,102091.03
2023-12-17T05:13:22.293Z,102090.02
2023-12-17T05:15:14.267Z,102092.18
2023-12-17T05:17:05.587Z,102096.23
2023-12-17T05:18:57.538Z,102105.08
2023-12-17T05:20:49.822Z,102109.58
2023-12-17T05:22:41.283Z,102111.75
2023-12-17T05:24:32.501Z,102114.60
2023-12-17T05:26:23.792Z,102117.09
2023-12-17T05:28:15.298Z,102114.71
2023-12-17T05:30:07.626Z,102114.34
2023-12-17T05:31:59.162Z,102119.83
2023-12-17T05:33:50.738Z,102121.55
2023-12-17T05:35:43.565Z,102126.17
2023-12-17T05:37:34.941Z,102127.70
2023-12-17T05:39:26.725Z,102125.40
2023-12-17T05:41:18.415Z,102124.64
2023-12-17T05:43:09.829Z,102127.75
2023-12-17T05:45:01.664Z,102127.48
2023-12-17T05:46:53.179Z,102128.40
2023-12-17T05:48:44.533Z,102131.96
2023-12-17T05:50:36.199Z,102136.22
2023-12-17T05:52:27.704Z,102140.48
2023-12-17T05:54:19.615Z,102133.27
2023-12-17T05:56:11.251Z,102131.73
2023-12-17T05:58:02.583Z,102128.95
2023-12-17T05:59:54.030Z,102127.92
2023-12-17T06:01:45.618Z,102128.44
2023-12-17T06:03:37.333Z,102128.91
2023-12-17T06:05:29.193Z,102122.54
2023-12-17T06:07:20.761Z,102119.81
2023-12-17T06:09:12.724Z,102117.33
2023-12-17T06:11:04.691Z,102119.64
2023-12-17T06:12:55.971Z,102120.45
2023-12-17T06:14:47.757Z,102121.70
2023-12-17T06:16:43.274Z,102118.13
2023-12-17T06:18:35.591Z,102117.73
2023-12-17T06:20:29.536Z,102118.55
2023-12-17T06:22:20.939Z,102119.67
2023-12-17T06:24:12.340Z,102120.42
2023-12-17T06:26:06.040Z,102119.09
2023-12-17T06:27:58.027Z,102122.88
2023-12-17T06:29:53.207Z,102124.67
2023-12-17T06:31:44.814Z,102128.64
2023-12-17T06:33:36.111Z,102126.36
2023-12-17T06:35:27.921Z,102132.45
2023-12-17T06:37:19.632Z,102131.24
2023-12-17T06:39:12.011Z,102130.96
2023-12-17T06:41:03.794Z,102131.64
2023-12-17T06:42:55.390Z,102135.09
2023-12-17T06:44:47.083Z,102135.39
2023-12-17T06:46:38.931Z,102139.54
2023-12-17T06:48:30.636Z,102139.44
2023-12-17T06:50:22.192Z,102138.45
2023-12-17T06:52:13.737Z,102143.39
2023-12-17T06:54:05.407Z,102146.48
2023-12-17T06:55:57.329Z,102143.25
2023-12-17T06:57:49.474Z,102141.52
2023-12-17T06:59:41.225Z,102145.15
2023-12-17T07:01:33.123Z,102145.77
2023-12-17T07:03:25.777Z,102147.64
2023-12-17T07:05:17.863Z,102146.70
2023-12-17T07:07:09.213Z,102147.05
2023-12-17T07:09:00.510Z,102146.84
2023-12-17T07:10:52.270Z,102149.33
2023-12-17T07:12:43.705Z,102145.52
2023-12-17T07:14:35.280Z,102139.43
2023-12-17T07:16:29.362Z,102145.00
2023-12-17T07:18:21.013Z,102147.58
2023-12-17T07:20:12.691Z,102146.70
2023-12-17T07:22:04.503Z,102149.94
2023-12-17T07:23:57.576Z,102150.02
2023-12-17T07:25:49.382Z,102161.66
2023-12-17T07:27:40.876Z,102164.22
2023-12-17T07:29:32.461Z,102166.65
2023-12-17T07:31:24.065Z,102162.38
2023-12-17T07:33:15.952Z,102163.78
2023-12-17T07:35:08.533Z,102158.48
2023-12-17T07:37:03.499Z,102160.79
2023-12-17T07:38:55.048Z,102166.46
2023-12-17T07:40:46.413Z,102169.93
2023-12-17T07:42:37.826Z,102170.88
2023-12-17T07:44:30.501Z,102174.70
2023-12-17T07:46:21.778Z,102179.36
2023-12-17T07:48:13.383Z,102182.14
2023-12-17T07:50:06.479Z,102182.96
2023-12-17T07:51:57.692Z,102182.58
2023-12-17T07:53:49.595Z,102182.65
2023-12-17T07:55:41.692Z,102186.50
2023-12-17T07:57:34.506Z,102181.20
2023-12-17T07:59:27.076Z,102183.23
2023-12-17T08:01:20.729Z,102181.17
2023-12-17T08:03:12.810Z,102180.80
2023-12-17T08:05:07.378Z,102185.23
2023-12-17T08:06:58.819Z,102187.94
2023-12-17T08:08:50.331Z,102197.81
2023-12-17T08:10:41.538Z,102198.53
2023-12-17T08:12:32.832Z,102202.19
2023-12-17T08:14:24.305Z,102204.18
2023-12-17T08:16:15.653Z,102205.16
2023-12-17T08:18:06.807Z,102208.47
2023-12-17T08:19:58.817Z,102207.21
2023-12-17T08:21:50.172Z,102203.44
2023-12-17T08:23:42.545Z,102205.14
2023-12-17T08:25:39.545Z,102208.44
2023-12-17T08:27:31.186Z,102206.95
2023-12-17T08:29:22.950Z,102203.94
2023-12-17T08:31:14.570Z,102200.83
2023-12-17T08:33:06.760Z,102203.88
2023-12-17T08:34:59.919Z,102203.14
2023-12-17T08:36:51.504Z,102205.05
2023-12-17T08:38:47.022Z,102205.70
2023-12-17T08:40:40.702Z,102210.68
2023-12-17T08:42:32.105Z,102206.33
2023-12-17T08:44:24.501Z,102203.95
2023-12-17T08:46:15.617Z,102204.31
2023-12-17T08:48:07.077Z,102206.68
2023-12-17T08:50:01.287Z,102212.02
2023-12-17T08:51:52.876Z,102214.32
2023-12-17T08:53:44.665Z,102210.75
2023-12-17T08:55:36.087Z,102210.38
2023-12-17T08:57:28.036Z,102213.73
2023-12-17T08:59:19.601Z,102213.17
2023-12-17T09:01:11.634Z,102209.11
2023-12-17T09:03:03.713Z,102205.91
2023-12-17T09:04:55.490Z,102207.31
2023-12-17T09:06:48.525Z,102207.89
2023-12-17T09:08:39.771Z,102208.99
2023-12-17T09:10:31.508Z,102216.07
2023-12-17T09:12:23.869Z,102205.59
2023-12-17T09:14:15.657Z,102197.83
2023-12-17T09:16:08.287Z,102197.64
2023-12-17T09:17:59.926Z,102199.30
2023-12-17T09:19:51.411Z,102197.05
2023-12-17T09:21:42.828Z,102195.66
2023-12-17T09:23:33.994Z,102194.95
2023-12-17T09:25:25.311Z,102201.63
2023-12-17T09:27:17.132Z,102200.52
2023-12-17T09:29:08.752Z,102196.86
2023-12-17T09:31:02.490Z,102194.52
2023-12-17T09:32:53.936Z,102197.10
2023-12-17T09:34:45.364Z,102202.95
2023-12-17T09:36:36.943Z,102204.58
2023-12-17T09:38:28.705Z,102198.30
2023-12-17T09:40:20.187Z,102196.54
2023-12-17T09:42:12.193Z,102202.18
2023-12-17T09:44:07.053Z,102204.70
2023-12-17T09:45:58.465Z,102207.84
2023-12-17T09:47:50.335Z,102207.02
2023-12-17T09:49:42.161Z,102205.80
2023-12-17T09:51:37.714Z,102209.81
2023-12-17T09:53:32.490Z,102209.52
2023-12-17T09:55:23.999Z,102212.42
2023-12-17T09:57:17.293Z,102209.58
2023-12-17T09:59:09.070Z,102205.73
2023-12-17T10:01:00.407Z,102207.08
2023-12-17T10:02:52.306Z,102198.11
2023-12-17T10:04:46.424Z,102200.45
2023-12-17T10:06:38.768Z,102201.63
2023-12-17T10:08:30.266Z,102195.48
2023-12-17T10:10:21.961Z,102188.62
2023-12-17T10:12:16.037Z,102178.09
2023-12-17T10:14:20.924Z,102179.38
2023-12-17T10:16:12.268Z,102176.67
2023-12-17T10:18:04.750Z,102178.48
2023-12-17T10:19:56.684Z,102176.38
2023-12-17T10:21:48.868Z,102172.52
2023-12-17T10:23:47.896Z,102168.85
2023-12-17T10:25:43.573Z,102167.83
2023-12-17T10:27:35.122Z,102166.83
2023-12-17T10:29:27.113Z,102157.38
2023-12-17T10:31:19.152Z,102155.86
2023-12-17T10:33:14.884Z,102159.18
2023-12-17T10:35:07.175Z,102157.73
2023-12-17T10:36:59.114Z,102152.15
2023-12-17T10:38:53.444Z,102148.41
2023-12-17T10:40:45.043Z,102144.17
2023-12-17T10:42:36.769Z,102138.87
2023-12-17T10:44:29.482Z,102143.50
2023-12-17T10:46:20.802Z,102137.39
2023-12-17T10:48:14.908Z,102142.30
2023-12-17T10:50:07.161Z,102142.80
2023-12-17T10:52:00.460Z,102140.05
2023-12-17T10:53:52.081Z,102137.83
2023-12-17T10:55:43.726Z,102138.35
2023-12-17T10:57:36.299Z,102133.39
2023-12-17T10:59:38.141Z,102138.40
2023-12-17T11:01:33.523Z,102139.07
2023-12-17T11:03:26.395Z,102137.81
2023-12-17T11:05:17.850Z,102137.97
2023-12-17T11:07:11.058Z,102140.48
2023-12-17T11:09:05.488Z,102137.38
2023-12-17T11:10:57.185Z,102129.39
2023-12-17T11:12:49.175Z,102131.33
2023-12-17T11:14:45.408Z,102131.61
2023-12-17T11:16:36.801Z,102127.12
2023-12-17T11:18:43.289Z,102126.14
2023-12-17T11:20:41.655Z,102126.84
2023-12-17T11:22:37.814Z,102125.26
2023-12-17T11:24:31.805Z,102119.80
2023-12-17T11:26:23.615Z,102123.88
2023-12-17T11:28:27.925Z,102119.35
2023-12-17T11:30:29.718Z,102120.30
2023-12-17T11:32:22.966Z,102120.42
2023-12-17T11:34:14.791Z,102122.52
2023-12-17T11:36:09.966Z,102121.02
2023-12-17T11:38:03.984Z,102124.12
2023-12-17T11:39:55.822Z,102115.08
2023-12-17T11:41:47.469Z,102112.58
2023-12-17T11:43:38.567Z,102117.17
2023-12-17T11:45:37.258Z,102116.05
2023-12-17T11:47:28.996Z,102108.36
2023-12-17T11:49:25.532Z,102100.27
2023-12-17T11:51:25.894Z,102097.64
2023-12-17T11:53:18.703Z,102093.80
2023-12-17T11:55:10.319Z,102081.11
2023-12-17T11:57:02.768Z,102079.52
2023-12-17T11:58:54.526Z,102079.08
2023-12-17T12:01:09.653Z,102074.91
2023-12-17T12:03:01.676Z,102081.63
2023-12-17T12:04:55.533Z,102079.39
2023-12-17T12:06:46.750Z,102080.93
2023-12-17T12:08:47.025Z,102069.83
2023-12-17T12:10:48.707Z,102071.65
2023-12-17T12:12:40.102Z,102067.98
2023-12-17T12:14:31.692Z,102074.09
2023-12-17T12:16:24.008Z,102067.81
2023-12-17T12:18:22.597Z,102060.89
2023-12-17T12:20:14.981Z,102057.26
2023-12-17T12:22:06.647Z,102054.43
2023-12-17T12:23:58.646Z,102048.40
2023-12-17T12:25:50.488Z,102044.37
2023-12-17T12:27:42.349Z,102043.97
2023-12-17T12:29:38.262Z,102033.25
2023-12-17T12:31:30.753Z,102030.80
2023-12-17T12:33:22.117Z,102026.15
2023-12-17T12:35:24.594Z,102026.05
2023-12-17T12:37:15.916Z,102020.20
2023-12-17T12:39:08.426Z,102015.85
2023-12-17T12:41:10.114Z,102014.27
2023-12-17T12:43:03.077Z,102008.61
2023-12-17T12:44:54.471Z,102002.63
2023-12-17T12:46:51.070Z,102003.23
2023-12-17T12:48:42.703Z,102004.86
2023-12-17T12:50:34.216Z,102006.95
2023-12-17T12:52:25.975Z,102007.65
2023-12-17T12:54:18.820Z,102007.04
2023-12-17T12:56:10.471Z,102009.54
2023-12-17T12:58:01.917Z,102011.17
2023-12-17T12:59:53.558Z,102011.45
2023-12-17T13:01:45.093Z,102004.50
2023-12-17T13:03:37.323Z,102000.45
2023-12-17T13:05:28.976Z,102000.31
2023-12-17T13:07:20.708Z,102003.14
2023-12-17T13:09:12.765Z,102008.08
2023-12-17T13:11:04.510Z,102018.80
2023-12-17T13:12:56.176Z,102024.75
2023-12-17T13:14:48.050Z,102030.83
2023-12-17T13:16:39.617Z,102031.79
2023-12-17T13:18:30.878Z,102032.63
2023-12-17T13:20:22.671Z,102023.17
2023-12-17T13:22:14.534Z,102024.23
2023-12-17T13:24:06.990Z,102024.00
2023-12-17T13:26:04.246Z,102019.79
2023-12-17T13:28:02.086Z,102023.45
2023-12-17T13:29:53.850Z,102025.91
2023-12-17T13:31:45.342Z,102022.53
2023-12-17T13:33:36.975Z,102018.54
2023-12-17T13:35:28.750Z,102016.80
2023-12-17T13:37:20.072Z,102007.67
2023-12-17T13:39:11.353Z,102007.70
2023-12-17T13:41:03.620Z,102006.28
2023-12-17T13:42:56.012Z,102005.57
2023-12-17T13:44:47.803Z,102011.92
2023-12-17T13:46:39.276Z,102003.14
2023-12-17T13:48:33.714Z,102007.58
2023-12-17T13:50:26.211Z,102003.36
2023-12-17T13:52:17.853Z,101997.00
2023-12-17T13:54:10.153Z,101992.79
2023-12-17T13:56:02.096Z,101990.98
2023-12-17T13:57:54.070Z,101988.42
2023-12-17T13:59:48.479Z,101981.77
2023-12-17T14:01:40.437Z,101980.58
2023-12-17T14:03:31.860Z,101972.91
2023-12-17T14:05:23.672Z,101971.06
2023-12-17T14:07:15.383Z,101975.86
2023-12-17T14:09:06.967Z,101976.60
2023-12-17T14:10:58.627Z,101978.05
2023-12-17T14:12:50.454Z,101984.63
2023-12-17T14:14:43.328Z,101987.36
2023-12-17T14:16:38.222Z,101985.09
2023-12-17T14:18:30.015Z,101983.18
2023-12-17T14:20:25.525Z,101985.95
2023-12-17T14:22:18.789Z,101984.05
2023-12-17T14:24:10.627Z,101982.98
2023-12-17T14:26:02.482Z,101979.43
2023-12-17T14:27:53.755Z,101981.60
2023-12-17T14:29:45.441Z,101983.29
2023-12-17T14:31:37.147Z,101986.12
2023-12-17T14:33:28.744Z,101987.41
2023-12-17T14:35:20.462Z,101984.65
2023-12-17T14:37:12.157Z,101988.39
2023-12-17T14:39:04.348Z,101987.13
2023-12-17T14:40:56.093Z,101979.69
2023-12-17T14:42:47.967Z,101986.98
2023-12-17T14:44:39.479Z,101986.27
2023-12-17T14:46:30.505Z,101982.27
2023-12-17T14:48:22.342Z,101979.61
2023-12-17T14:50:14.021Z,101979.58
2023-12-17T14:52:05.691Z,101968.61
2023-12-17T14:53:59.242Z,101973.94
2023-12-17T14:55:51.338Z,101975.73
2023-12-17T14:57:43.308Z,101973.51
2023-12-17T14:59:37.929Z,101972.05
2023-12-17T15:01:34.983Z,101972.23
2023-12-17T15:03:29.170Z,101976.08
2023-12-17T15:05:20.899Z,101977.63
2023-12-17T15:07:15.155Z,101977.00
2023-12-17T15:09:06.527Z,101981.27
2023-12-17T15:10:58.005Z,101983.47
2023-12-17T15:12:49.396Z,101980.14
2023-12-17T15:14:41.766Z,101980.34
2023-12-17T15:16:33.395Z,101981.89
2023-12-17T15:18:24.905Z,101982.58
2023-12-17T15:20:16.688Z,101981.81
2023-12-17T15:22:08.480Z,101982.13
2023-12-17T15:24:00.237Z,101982.20
2023-12-17T15:25:51.885Z,101982.91
2023-12-17T15:27:43.558Z,101986.59
2023-12-17T15:29:35.524Z,101986.56
2023-12-17T15:31:27.221Z,101987.23
2023-12-17T15:33:18.875Z,101983.31
2023-12-17T15:35:12.307Z,101990.25
2023-12-17T15:37:04.188Z,101976.13
2023-12-17T15:38:55.857Z,101976.21
2023-12-17T15:40:47.449Z,101973.62
2023-12-17T15:42:38.765Z,101967.16
2023-12-17T15:44:30.084Z,101969.23
2023-12-17T15:46:27.751Z,101965.52
2023-12-17T15:48:19.242Z,101958.30
2023-12-17T15:50:11.258Z,101960.27
2023-12-17T15:52:03.905Z,101960.45
2023-12-17T15:53:55.564Z,101964.93
2023-12-17T15:55:47.097Z,101968.45
2023-12-17T15:57:38.821Z,101967.04
2023-12-17T15:59:30.534Z,101966.24
2023-12-17T16:01:22.410Z,101962.30
2023-12-17T16:03:13.941Z,101966.27
2023-12-17T16:05:06.228Z,101964.94
2023-12-17T16:06:57.532Z,101966.12
2023-12-17T16:08:49.285Z,101967.00
2023-12-17T16:10:41.019Z,101970.08
2023-12-17T16:12:32.727Z,101964.42
2023-12-17T16:14:24.367Z,101955.86
2023-12-17T16:16:25.418Z,101955.89
2023-12-17T16:18:17.060Z,101961.48
2023-12-17T16:20:09.479Z,101962.53
2023-12-17T16:22:00.781Z,101962.86
2023-12-17T16:23:52.818Z,101966.64
2023-12-17T16:25:45.645Z,101968.71
2023-12-17T16:27:36.844Z,101969.52
2023-12-17T16:29:28.721Z,101970.19
2023-12-17T16:31:19.991Z,101967.48
2023-12-17T16:33:14.749Z,101962.90
2023-12-17T16:35:09.878Z,101956.73
2023-12-17T16:37:02.059Z,101953.59
2023-12-17T16:38:57.568Z,101962.52
2023-12-17T16:40:49.486Z,101950.89
2023-12-17T16:42:40.952Z,101957.14
2023-12-17T16:44:32.707Z,101963.05
2023-12-17T16:46:23.905Z,101958.46
2023-12-17T16:48:16.984Z,101958.33
2023-12-17T16:50:09.317Z,101957.86
2023-12-17T16:52:01.006Z,101961.45
2023-12-17T16:53:52.903Z,101961.66
2023-12-17T16:55:44.892Z,101952.37
2023-12-17T16:57:36.196Z,101944.98
2023-12-17T16:59:29.032Z,101946.31
2023-12-17T17:01:20.628Z,101947.23
2023-12-17T17:03:12.650Z,101942.02
2023-12-17T17:05:04.592Z,101937.73
2023-12-17T17:06:57.065Z,101934.29
2023-12-17T17:08:48.951Z,101929.02
2023-12-17T17:10:40.236Z,101929.27
2023-12-17T17:12:31.975Z,101931.48
2023-12-17T17:14:23.654Z,101931.05
2023-12-17T17:16:15.213Z,101930.89
2023-12-17T17:18:06.709Z,101926.13
2023-12-17T17:19:58.931Z,101924.86
2023-12-17T17:21:50.648Z,101923.76
2023-12-17T17:23:42.423Z,101918.97
2023-12-17T17:25:34.538Z,101917.70
2023-12-17T17:27:26.947Z,101914.27
2023-12-17T17:29:19.758Z,101917.14
2023-12-17T17:31:14.434Z,101916.32
2023-12-17T17:33:06.508Z,101915.89
2023-12-17T17:34:57.975Z,101916.59
2023-12-17T17:36:50.233Z,101914.80
2023-12-17T17:38:42.213Z,101913.48
2023-12-17T17:40:33.567Z,101910.46
2023-12-17T17:42:25.117Z,101911.58
2023-12-17T17:44:16.665Z,101914.43
2023-12-17T17:46:09.946Z,101905.42
2023-12-17T17:48:01.733Z,101909.13
2023-12-17T17:49:53.443Z,101906.52
2023-12-17T17:51:44.693Z,101903.70
2023-12-17T17:53:37.009Z,101901.42
2023-12-17T17:55:29.633Z,101899.77
2023-12-17T17:57:21.297Z,101896.95
2023-12-17T17:59:12.988Z,101908.45
2023-12-17T18:01:04.766Z,101901.90
2023-12-17T18:02:58.673Z,101905.16
2023-12-17T18:04:50.683Z,101905.81
2023-12-17T18:06:42.571Z,101910.98
2023-12-17T18:08:34.022Z,101907.92
2023-12-17T18:10:25.447Z,101904.63
2023-12-17T18:12:16.960Z,101903.89
2023-12-17T18:14:08.637Z,101898.59
2023-12-17T18:16:00.396Z,101903.33
2023-12-17T18:17:52.037Z,101901.44
2023-12-17T18:19:45.344Z,101898.36
2023-12-17T18:21:38.961Z,101897.27
2023-12-17T18:23:30.440Z,101893.30
2023-12-17T18:25:21.858Z,101891.51
2023-12-17T18:27:13.745Z,101886.99
2023-12-17T18:29:05.218Z,101883.70
2023-12-17T18:30:57.026Z,101882.42
2023-12-17T18:32:48.600Z,101882.35
2023-12-17T18:34:40.312Z,101878.77
2023-12-17T18:36:32.863Z,101870.98
2023-12-17T18:38:24.460Z,101868.14
2023-12-17T18:40:16.309Z,101870.17
2023-12-17T18:42:08.011Z,101874.28
2023-12-17T18:43:59.471Z,101876.91
2023-12-17T18:45:51.178Z,101873.06
2023-12-17T18:47:42.695Z,101869.83
2023-12-17T18:49:38.117Z,101878.02
2023-12-17T18:51:29.731Z,101877.53
2023-12-17T18:53:21.332Z,101881.05
2023-12-17T18:55:13.037Z,101879.30
2023-12-17T18:57:04.814Z,101878.35
2023-12-17T18:58:56.465Z,101871.80
2023-12-17T19:00:48.052Z,101873.56
2023-12-17T19:02:40.051Z,101875.75
2023-12-17T19:04:31.582Z,101872.38
2023-12-17T19:06:23.378Z,101872.36
2023-12-17T19:08:14.991Z,101871.98
2023-12-17T19:10:07.195Z,101870.00
2023-12-17T19:11:58.778Z,101866.88
2023-12-17T19:13:50.138Z,101868.38
2023-12-17T19:15:44.155Z,101871.99
2023-12-17T19:17:36.162Z,101873.20
2023-12-17T19:19:28.680Z,101871.67
2023-12-17T19:21:20.379Z,101867.13
2023-12-17T19:23:11.984Z,101862.88
2023-12-17T19:25:03.340Z,101867.45
2023-12-17T19:26:56.333Z,101859.85
2023-12-17T19:28:47.624Z,101860.40
2023-12-17T19:30:39.456Z,101863.52
2023-12-17T19:32:31.213Z,101864.02
2023-12-17T19:34:22.948Z,101865.12
2023-12-17T19:36:14.534Z,101856.65
2023-12-17T19:38:05.888Z,101856.29
2023-12-17T19:39:59.193Z,101854.58
2023-12-17T19:41:52.556Z,101852.67
2023-12-17T19:43:44.604Z,101853.51
2023-12-17T19:45:36.127Z,101856.33
2023-12-17T19:47:28.161Z,101852.67
2023-12-17T19:49:19.847Z,101855.42
2023-12-17T19:51:15.442Z,101853.92
2023-12-17T19:53:07.138Z,101851.73
2023-12-17T19:54:59.091Z,101852.30
2023-12-17T19:56:50.792Z,101848.25
2023-12-17T19:58:45.016Z,101852.40
2023-12-17T20:00:37.696Z,101849.99
2023-12-17T20:02:29.254Z,101854.87
2023-12-17T20:04:20.817Z,101856.63
2023-12-17T20:06:12.916Z,101858.77
2023-12-17T20:08:05.057Z,101859.23
2023-12-17T20:09:56.547Z,101859.02
2023-12-17T20:11:48.445Z,101856.13
2023-12-17T20:13:39.997Z,101856.73
2023-12-17T20:15:31.583Z,101851.13
2023-12-17T20:17:22.989Z,101851.30
2023-12-17T20:19:15.016Z,101851.89
2023-12-17T20:21:06.370Z,101853.39
2023-12-17T20:22:58.128Z,101855.16
2023-12-17T20:24:49.941Z,101862.33
2023-12-17T20:26:41.382Z,101859.27
2023-12-17T20:28:33.527Z,101863.41
2023-12-17T20:30:25.110Z,101856.96
2023-12-17T20:32:16.431Z,101856.42
2023-12-17T20:34:09.250Z,101850.75
2023-12-17T20:36:01.827Z,101848.87
2023-12-17T20:37:54.356Z,101845.89
2023-12-17T20:39:46.177Z,101838.36
2023-12-17T20:41:37.274Z,101837.24
2023-12-17T20:43:28.361Z,101833.67
2023-12-17T20:45:20.002Z,101837.42
2023-12-17T20:47:11.970Z,101832.96
2023-12-17T20:49:03.979Z,101828.65
2023-12-17T20:50:56.145Z,101824.85
2023-12-17T20:52:47.478Z,101823.38
2023-12-17T20:54:38.646Z,101816.98
2023-12-17T20:56:30.286Z,101813.13
2023-12-17T20:58:24.121Z,101806.28
2023-12-17T21:00:16.351Z,101803.44
2023-12-17T21:02:07.663Z,101799.30
2023-12-17T21:03:59.572Z,101801.98
2023-12-17T21:05:51.286Z,101799.70
2023-12-17T21:07:46.935Z,101802.15
2023-12-17T21:09:38.659Z,101801.48
2023-12-17T21:11:30.176Z,101797.45
2023-12-17T21:13:21.746Z,101790.64
2023-12-17T21:15:13.648Z,101788.66
2023-12-17T21:17:05.397Z,101783.63
2023-12-17T21:18:57.292Z,101792.39
2023-12-17T21:20:48.749Z,101789.64
2023-12-17T21:22:40.743Z,101790.41